Flight Track Log - Related Links

Times and Time Zones

All times are in EDT time to prevent confusion due to time zone crossing. See the N3376G flight status page for this flight to view local times or setup timezone preferences in your user account.

Time Position Orientation Groundspeed Altitude Reporting Facility
EDT Latitude Longitude Course Direction KTS MPH feet Rate Location/Type
Fri 03:14:33 PM 41.9394 -72.6969 323° Northwest 90 104 700  Level Boston Center
Fri 03:15:22 PM 41.9583 -72.7164 318° Northwest 110 127 1,500 1,431 Climbing Boston Center
Fri 03:16:22 PM 41.9789 -72.7417 312° West 102 117 3,300 1,438 Climbing Boston Center
Fri 03:17:23 PM 41.9978 -72.7697 317° Northwest 96 110 4,400 1,180 Climbing Boston Center
Fri 03:18:24 PM 42.0225 -72.8006 313° West 125 144 5,700 1,266 Climbing Boston Center
Fri 03:19:31 PM 42.0494 -72.8400 313° West 122 140 7,100 984 Climbing Boston Center
Fri 03:20:32 PM 42.0725 -72.8736 320° Northwest 122 140 7,800 443 Climbing Boston Center
Fri 03:21:33 PM 42.0994 -72.9044 314° West 132 152 8,000 98 Climbing Boston Center
Fri 03:22:34 PM 42.1344 -72.9525 313° West 165 190 8,000  Level Boston Center
Fri 03:23:35 PM 42.1656 -72.9975 317° Northwest 166 191 8,000 49 Level Boston Center
Fri 03:24:36 PM 42.1986 -73.0397 312° West 166 191 8,100  Climbing Boston Center
Fri 03:26:02 PM 42.2422 -73.1047 316° Northwest 162 186 8,000  Descending Boston Center
Fri 03:27:03 PM 42.2772 -73.1500 313° West 166 191 8,100 49 Climbing Boston Center
Fri 03:28:04 PM 42.3083 -73.1953 313° West 162 186 8,100 -50 Level Boston Center
Fri 03:29:04 PM 42.3372 -73.2378 314° West 158 182 8,000  Descending Boston Center
Fri 03:30:05 PM 42.3681 -73.2803 315° West 160 184 8,100  Climbing Boston Center
Fri 03:31:06 PM 42.4011 -73.3258 317° Northwest 158 182 8,000 -49 Descending Boston Center
Fri 03:32:07 PM 42.4342 -73.3683 315° West 158 182 8,000  Level Boston Center
Fri 03:33:13 PM 42.4672 -73.4139 306° West 159 183 8,000 47 Level Boston Center
Fri 03:34:14 PM 42.4917 -73.4594 277° West 158 182 8,100 49 Climbing Boston Center
Fri 03:35:15 PM 42.4975 -73.5214 277° West 160 184 8,100 -50 Level Boston Center
Fri 03:36:15 PM 42.5031 -73.5806 274° West 161 185 8,000  Descending Boston Center
Fri 03:37:16 PM 42.5067 -73.6456 279° West 163 188 8,100 49 Climbing Boston Center
Fri 03:38:17 PM 42.5142 -73.7106 275° West 164 189 8,100 -50 Level Boston Center
Fri 03:39:17 PM 42.5178 -73.7697 280° West 161 185 8,000  Descending Boston Center
Fri 03:40:18 PM 42.5253 -73.8289 274° West 159 183 8,100 49 Climbing Boston Center
Fri 03:41:19 PM 42.5286 -73.8939 277° West 165 190 8,100  Level Boston Center
Fri 03:42:25 PM 42.5342 -73.9558 281° West 162 186 8,100 -47 Level Boston Center
Fri 03:43:26 PM 42.5436 -74.0211 274° West 163 188 8,000  Descending Boston Center
Fri 03:44:27 PM 42.5469 -74.0858 275° West 163 188 8,100  Climbing Boston Center
Fri 03:45:21 PM 42.5503 -74.1394 278° West 161 185 8,000  Descending Boston Center
Fri 03:46:16 PM 42.5558 -74.1906 276° West 159 183 8,100 50 Climbing Boston Center
Fri 03:47:22 PM 42.5608 -74.2583 277° West 159 183 8,100 -47 Level Boston Center
Fri 03:48:23 PM 42.5661 -74.3206 279° West 161 185 8,000  Descending Boston Center
Fri 03:50:21 PM 42.5789 -74.4336 274° West 166 191 8,100 34 Climbing Boston Center
Fri 03:51:21 PM 42.5819 -74.4872 276° West 166 191 8,100  Level Boston Center
Fri 03:52:21 PM 42.5869 -74.5550 277° West 166 191 8,100  Level Boston Center
Fri 03:53:21 PM 42.5922 -74.6117 276° West 161 185 8,100 -50 Level Boston Center
Fri 03:54:21 PM 42.5972 -74.6797 278° West 166 191 8,000  Descending Boston Center
Fri 03:55:21 PM 42.6025 -74.7306 275° West 160 184 8,100 50 Climbing Boston Center
Fri 03:56:21 PM 42.6072 -74.7983 276° West 160 184 8,100  Level Boston Center
Fri 03:57:21 PM 42.6122 -74.8606 279° West 165 190 8,100  Level Boston Center
Fri 03:58:21 PM 42.6192 -74.9231 273° West 165 190 8,100 -50 Level Boston Center
Fri 03:59:21 PM 42.6219 -74.9853 278° West 165 190 8,000  Descending Boston Center
Fri 04:00:21 PM 42.6272 -75.0361 276° West 160 184 8,100  Climbing Boston Center
Fri 04:01:21 PM 42.6319 -75.0958 277° West 160 184 8,000  Descending Boston Center
Fri 04:02:21 PM 42.6369 -75.1553 276° West 160 184 8,100 50 Climbing Boston Center
Fri 04:03:21 PM 42.6417 -75.2119 273° West 160 184 8,100  Level Boston Center
Fri 04:04:19 PM 42.6442 -75.2769 280° West 159 183 8,100  Level Boston Center
Fri 04:05:21 PM 42.6514 -75.3308 276° West 165 190 8,100  Level Boston Center
Fri 04:06:21 PM 42.6561 -75.3906 273° West 160 184 8,100  Level Boston Center
Fri 04:07:21 PM 42.6586 -75.4500 279° West 160 184 8,100  Level Boston Center
Fri 04:08:21 PM 42.6653 -75.5067 278° West 160 184 8,100 -50 Level Boston Center
Fri 04:09:21 PM 42.6719 -75.5719 273° West 165 190 8,000 -50 Descending Boston Center
Fri 04:10:21 PM 42.6744 -75.6286 276° West 165 190 8,000  Level Boston Center
Fri 04:11:21 PM 42.6792 -75.6853 276° West 160 184 8,000  Level Boston Center
Fri 04:12:21 PM 42.6836 -75.7478 276° West 160 184 8,000  Level Boston Center
Fri 04:13:21 PM 42.6883 -75.8044 267° West 160 184 8,000  Level Boston Center
Fri 04:13:51 PM 42.6872 -75.8383 286° West 157 181 8,000  Level Boston Center
Fri 04:14:21 PM 42.6928 -75.8642 267° West 160 184 8,000  Level Boston Center
Fri 04:14:52 PM 42.6917 -75.8981 273° West 159 183 8,000  Level Boston Center
Fri 04:15:46 PM 42.6942 -75.9575 286° West 160 184 8,000  Level Boston Center
Fri 04:16:21 PM 42.6994 -75.9831 276° West 160 184 8,000  Level Boston Center
Fri 04:17:21 PM 42.7039 -76.0400 271° West 160 184 8,000  Level Boston Center
Fri 04:17:54 PM 42.7047 -76.0853 275° West 160 184 8,000  Level Boston Center
Fri 04:18:55 PM 42.7089 -76.1447 275° West 162 186 8,000  Level Boston Center
Fri 04:19:56 PM 42.7131 -76.2072 280° West 162 186 8,000  Level Boston Center
Fri 04:20:51 PM 42.7197 -76.2614 273° West 160 184 8,000  Level Boston Center
Fri 04:21:52 PM 42.7219 -76.3208 275° West 159 183 8,000  Level Boston Center
Fri 04:22:52 PM 42.7258 -76.3833 275° West 159 183 8,000  Level Boston Center
Fri 04:23:53 PM 42.7300 -76.4431 275° West 162 186 8,000  Level Boston Center
Fri 04:24:54 PM 42.7342 -76.5056 273° West 158 182 8,000  Level Boston Center
Fri 04:26:33 PM 42.7375 -76.6025 280° West 161 185 8,000  Level Cleveland Center
Fri 04:27:40 PM 42.7461 -76.6669 272° West 159 183 8,000  Level Cleveland Center
Fri 04:28:41 PM 42.7481 -76.7292 276° West 158 182 8,000  Level Cleveland Center
Fri 04:29:42 PM 42.7522 -76.7883 273° West 159 183 8,000  Level Cleveland Center
Fri 04:30:43 PM 42.7544 -76.8533 276° West 159 183 8,000  Level Cleveland Center
Fri 04:31:37 PM 42.7581 -76.9039 275° West 158 182 8,000  Level Cleveland Center
Fri 04:32:38 PM 42.7619 -76.9658 275° West 158 182 8,000  Level Cleveland Center
Fri 04:33:51 PM 42.7664 -77.0364 275° West 159 183 8,000  Level Cleveland Center
Fri 04:34:51 PM 42.7703 -77.0956 277° West 159 183 8,000  Level Cleveland Center
Fri 04:35:52 PM 42.7764 -77.1603 275° West 160 184 8,000  Level Cleveland Center
Fri 04:36:53 PM 42.7803 -77.2225 272° West 160 184 8,000  Level Cleveland Center
Fri 04:37:53 PM 42.7819 -77.2817 275° West 161 185 8,000  Level Cleveland Center
Fri 04:38:54 PM 42.7858 -77.3408 277° West 161 185 8,000  Level Cleveland Center
Fri 04:39:55 PM 42.7917 -77.4031 269° West 162 186 8,000  Level Cleveland Center
Fri 04:40:55 PM 42.7911 -77.4625 275° West 161 185 8,000  Level Cleveland Center
Fri 04:41:56 PM 42.7947 -77.5217 275° West 160 184 8,000  Level Cleveland Center
Fri 04:43:02 PM 42.7989 -77.5922 275° West 160 184 8,000  Level Cleveland Center
Fri 04:43:57 PM 42.8022 -77.6431 274° West 160 184 8,000  Level Cleveland Center
Fri 04:44:58 PM 42.8058 -77.7078 272° West 159 183 8,000  Level Cleveland Center
Fri 04:45:52 PM 42.8072 -77.7617 280° West 159 183 8,000  Level Cleveland Center
Fri 04:46:53 PM 42.8147 -77.8178 272° West 160 184 8,000 -149 Level Cleveland Center
Fri 04:47:53 PM 42.8164 -77.8828 283° West 163 188 7,700 -400 Descending Cleveland Center
Fri 04:49:38 PM 42.8333 -77.9833 270° West 167 192 6,900 -655 Descending Buffalo TRACON
Fri 04:50:38 PM 42.8333 -78.0500 270° West 176 203 5,900 -850 Descending Buffalo TRACON
Fri 04:51:38 PM 42.8333 -78.1167 270° West 177 204 5,200 -737 Descending Buffalo TRACON
Fri 04:52:32 PM 42.8333 -78.1833 270° West 172 198 4,500 -778 Descending Buffalo TRACON
Fri 04:53:26 PM 42.8333 -78.2333 289° West 169 194 3,800 -526 Descending Buffalo TRACON
Fri 04:54:26 PM 42.8500 -78.3000 270° West 159 183 3,500 -298 Descending Buffalo TRACON
Fri 04:55:27 PM 42.8500 -78.3500 270° West 148 170 3,200 -283 Descending Buffalo TRACON
Fri 04:56:33 PM 42.8500 -78.4167 270° West 151 174 2,900 -238 Descending Buffalo TRACON
Fri 04:57:33 PM 42.8500 -78.4667 270° West 152 175 2,700 -350 Descending Buffalo TRACON
Fri 04:58:33 PM 42.8500 -78.5333 270° West 152 175 2,200 -381 Descending Buffalo TRACON
Fri 04:59:39 PM 42.8500 -78.6000 270° West 155 178 1,900 -273 Descending Buffalo TRACON

Login

Don't have an account? Register now (free) for customized features, flight alerts, and more!